Time;durP1;ratioP1;P1;durP2;ratioP2;P2;SDS_P1;SDS_P2;PMS_P1;PMS_P2;Temp;Humidity;BMP_temperature;BMP_pressure;BME280_temperature;BME280_humidity;BME280_pressure;Samples;Min_cycle;Max_cycle;Signal;HPM_P1;HPM_P2
2021/04/13 00:02:29;;;;;;;6.60;1.83;;;2.10;99.90;;;;;;4346376;33;20153;-65
2021/04/13 00:05:00;;;;;;;6.80;1.50;;;2.10;99.90;;;;;;4346622;33;20271;-65
2021/04/13 00:07:29;;;;;;;4.40;2.00;;;2.00;99.90;;;;;;4346013;33;20180;-61
2021/04/13 00:10:01;;;;;;;3.07;1.63;;;2.00;99.90;;;;;;4344756;33;20185;-63
2021/04/13 00:12:31;;;;;;;3.30;1.53;;;1.90;99.90;;;;;;4343382;33;20236;-63
2021/04/13 00:15:05;;;;;;;4.43;2.10;;;1.90;99.90;;;;;;4343714;33;20162;-64
2021/04/13 00:17:33;;;;;;;5.37;1.80;;;1.90;99.90;;;;;;4346090;33;20177;-62
2021/04/13 00:20:07;;;;;;;3.37;2.20;;;1.80;99.90;;;;;;4346117;33;20581;-62
2021/04/13 00:22:35;;;;;;;5.40;2.30;;;1.80;99.90;;;;;;4343790;33;20225;-62
2021/04/13 00:25:04;;;;;;;15.93;2.90;;;1.70;99.90;;;;;;4345402;33;20188;-65
2021/04/13 00:27:31;;;;;;;4.33;2.23;;;1.70;99.90;;;;;;4345006;33;20161;-61
2021/04/13 00:30:12;;;;;;;6.10;3.03;;;1.60;99.90;;;;;;4345181;33;20503;-66
2021/04/13 00:32:46;;;;;;;5.43;2.60;;;1.60;99.90;;;;;;4343626;33;20219;-61
2021/04/13 00:35:27;;;;;;;8.70;3.73;;;1.50;99.90;;;;;;4344652;33;20181;-66
2021/04/13 00:38:16;;;;;;;6.57;2.93;;;1.50;99.90;;;;;;4335151;33;20185;-64
2021/04/13 00:40:45;;;;;;;4.50;3.07;;;1.50;99.90;;;;;;4345473;33;20172;-63
2021/04/13 00:43:14;;;;;;;4.60;2.93;;;1.40;99.90;;;;;;4342851;33;20158;-64
2021/04/13 00:45:45;;;;;;;7.73;2.87;;;1.30;99.90;;;;;;4343227;33;20558;-63
2021/04/13 00:48:13;;;;;;;6.37;3.03;;;1.30;99.90;;;;;;4345774;33;20244;-63
2021/04/13 00:50:45;;;;;;;5.33;3.13;;;1.30;99.90;;;;;;4346232;33;20215;-65
2021/04/13 00:53:15;;;;;;;5.73;2.80;;;1.30;99.90;;;;;;4344762;33;20154;-64
2021/04/13 00:55:46;;;;;;;6.13;3.10;;;1.30;99.90;;;;;;4345482;33;20221;-64
2021/04/13 00:58:18;;;;;;;9.50;2.73;;;1.20;99.90;;;;;;4347993;33;20225;-61
2021/04/13 01:00:49;;;;;;;5.03;2.53;;;1.20;99.90;;;;;;4346799;33;20213;-64
2021/04/13 01:03:16;;;;;;;7.90;3.00;;;1.20;99.90;;;;;;4346775;32;20227;-64
2021/04/13 01:05:45;;;;;;;6.80;2.87;;;1.10;99.90;;;;;;4347484;33;20205;-61
2021/04/13 01:08:29;;;;;;;10.97;3.13;;;1.10;99.90;;;;;;4346779;32;20438;-61
2021/04/13 01:10:58;;;;;;;7.73;3.43;;;1.10;99.90;;;;;;4346374;33;20226;-63
2021/04/13 01:13:36;;;;;;;4.47;2.83;;;1.10;99.90;;;;;;4346842;32;20264;-65
2021/04/13 01:16:04;;;;;;;6.57;3.00;;;1.10;99.90;;;;;;4338721;33;20153;-64
2021/04/13 01:18:33;;;;;;;6.87;3.30;;;1.10;99.90;;;;;;4348186;33;20213;-65
2021/04/13 01:21:06;;;;;;;6.53;3.20;;;1.00;99.90;;;;;;4348040;33;20177;-64
2021/04/13 01:23:40;;;;;;;10.77;3.50;;;1.00;99.90;;;;;;4343557;33;20219;-62
2021/04/13 01:26:08;;;;;;;5.93;3.13;;;1.00;99.90;;;;;;4345533;33;20153;-65
2021/04/13 01:28:37;;;;;;;5.80;3.10;;;1.00;99.90;;;;;;4346853;33;20201;-62
2021/04/13 01:31:09;;;;;;;6.37;3.20;;;1.00;99.90;;;;;;4345559;33;20597;-62
2021/04/13 01:33:41;;;;;;;10.27;3.40;;;0.90;99.90;;;;;;4345960;32;20162;-63
2021/04/13 01:36:21;;;;;;;9.17;3.57;;;0.90;99.90;;;;;;4344888;33;20161;-63
2021/04/13 01:39:03;;;;;;;7.80;3.13;;;0.90;99.90;;;;;;4346368;33;20157;-63
2021/04/13 01:41:45;;;;;;;7.87;2.77;;;0.90;99.90;;;;;;4346462;33;20212;-63
2021/04/13 01:44:13;;;;;;;6.57;3.20;;;0.90;99.90;;;;;;4346534;32;20180;-63
2021/04/13 01:46:39;;;;;;;12.60;3.50;;;0.90;99.90;;;;;;4339105;33;20189;-63
2021/04/13 01:49:07;;;;;;;6.43;3.13;;;0.90;99.90;;;;;;4345784;33;20235;-62
2021/04/13 01:51:34;;;;;;;8.37;3.33;;;0.80;99.90;;;;;;4337034;33;20449;-63
2021/04/13 01:54:04;;;;;;;10.50;4.03;;;0.80;99.90;;;;;;4345492;33;20169;-64
2021/04/13 01:56:42;;;;;;;9.90;3.40;;;0.70;99.90;;;;;;4344635;33;20221;-65
2021/04/13 01:59:16;;;;;;;7.73;3.20;;;0.70;99.90;;;;;;4345224;32;20606;-64
2021/04/13 02:01:49;;;;;;;7.30;3.50;;;0.70;99.90;;;;;;4346723;33;20558;-64
2021/04/13 02:04:21;;;;;;;10.20;3.70;;;0.70;99.90;;;;;;4345384;33;20172;-64
2021/04/13 02:06:55;;;;;;;7.73;3.60;;;0.70;99.90;;;;;;4340476;33;20585;-64
2021/04/13 02:09:28;;;;;;;4.47;3.27;;;0.70;99.90;;;;;;4345145;33;20218;-63
2021/04/13 02:12:00;;;;;;;8.97;3.43;;;0.70;99.90;;;;;;4348060;33;20263;-61
2021/04/13 02:14:33;;;;;;;7.07;3.30;;;0.60;99.90;;;;;;4345082;33;20217;-62
2021/04/13 02:17:06;;;;;;;10.13;3.60;;;0.60;99.90;;;;;;4339602;33;20485;-63
2021/04/13 02:19:33;;;;;;;10.90;4.10;;;0.60;99.90;;;;;;4345672;33;20585;-64
2021/04/13 02:22:04;;;;;;;17.40;3.67;;;0.60;99.90;;;;;;4345488;33;20244;-62
2021/04/13 02:24:33;;;;;;;9.53;3.93;;;0.60;99.90;;;;;;4344251;33;20612;-63
2021/04/13 02:27:04;;;;;;;6.93;4.00;;;0.60;99.90;;;;;;4343795;33;20215;-63
2021/04/13 02:29:34;;;;;;;11.67;4.20;;;0.50;99.90;;;;;;4345074;33;20184;-65
2021/04/13 02:32:13;;;;;;;7.13;3.93;;;0.60;99.90;;;;;;4345540;33;20230;-64
2021/04/13 02:34:42;;;;;;;7.47;3.83;;;0.50;99.90;;;;;;4346590;33;20184;-63
2021/04/13 02:37:22;;;;;;;11.73;3.70;;;0.50;99.90;;;;;;4344281;32;20569;-62
2021/04/13 02:39:49;;;;;;;10.67;3.47;;;0.50;99.90;;;;;;4346832;33;20157;-63
2021/04/13 02:42:20;;;;;;;10.73;3.83;;;0.50;99.90;;;;;;4346735;33;20248;-64
2021/04/13 02:44:57;;;;;;;9.30;4.57;;;0.50;99.90;;;;;;4340321;33;20162;-62
2021/04/13 02:47:26;;;;;;;5.93;3.73;;;0.50;99.90;;;;;;4342923;33;20271;-63
2021/04/13 02:49:55;;;;;;;12.47;4.00;;;0.50;99.90;;;;;;4346627;33;20447;-63
2021/04/13 02:52:27;;;;;;;9.60;4.20;;;0.40;99.90;;;;;;4345787;33;20502;-65
2021/04/13 02:54:57;;;;;;;7.43;3.87;;;0.40;99.90;;;;;;4345360;32;20541;-64
2021/04/13 02:57:27;;;;;;;8.27;4.20;;;0.40;99.90;;;;;;4338051;33;20212;-64
2021/04/13 02:59:59;;;;;;;8.03;4.47;;;0.40;99.90;;;;;;4344506;33;20181;-63
2021/04/13 03:02:33;;;;;;;9.90;4.13;;;0.40;99.90;;;;;;4344606;33;20581;-64
2021/04/13 03:05:00;;;;;;;10.73;4.77;;;0.40;99.90;;;;;;4344847;33;20488;-64
2021/04/13 03:07:29;;;;;;;9.10;4.43;;;0.30;99.90;;;;;;4343494;33;20164;-64
2021/04/13 03:10:01;;;;;;;8.73;4.47;;;0.30;99.90;;;;;;4344264;33;20248;-61
2021/04/13 03:12:31;;;;;;;14.07;4.87;;;0.30;99.90;;;;;;4344887;33;20183;-63
2021/04/13 03:14:58;;;;;;;14.97;4.63;;;0.30;99.90;;;;;;4346361;33;20532;-64
2021/04/13 03:17:27;;;;;;;9.33;4.50;;;0.30;99.90;;;;;;4343652;33;20644;-63
2021/04/13 03:20:01;;;;;;;13.27;4.50;;;0.30;99.90;;;;;;4341016;33;20499;-64
2021/04/13 03:22:28;;;;;;;8.87;4.50;;;0.30;99.90;;;;;;4345242;33;20220;-65
2021/04/13 03:24:56;;;;;;;10.13;4.53;;;0.30;99.90;;;;;;4344335;33;20215;-63
2021/04/13 03:27:27;;;;;;;11.13;4.30;;;0.30;99.90;;;;;;4343141;33;20633;-62
2021/04/13 03:30:01;;;;;;;8.87;4.70;;;0.20;99.90;;;;;;4343505;33;20214;-64
2021/04/13 03:32:31;;;;;;;10.07;4.57;;;0.20;99.90;;;;;;4345198;33;20195;-64
2021/04/13 03:34:58;;;;;;;10.77;4.97;;;0.20;99.90;;;;;;4344509;33;20222;-64
2021/04/13 03:37:27;;;;;;;8.37;4.63;;;0.20;99.90;;;;;;4341902;33;20212;-62
2021/04/13 03:39:55;;;;;;;8.60;4.00;;;0.30;99.90;;;;;;4344371;33;20199;-64
2021/04/13 03:42:25;;;;;;;9.50;4.80;;;0.30;99.90;;;;;;4345941;33;20153;-65
2021/04/13 03:44:52;;;;;;;8.10;4.60;;;0.20;99.90;;;;;;4344916;33;20175;-62
2021/04/13 03:47:22;;;;;;;9.87;4.33;;;0.30;99.90;;;;;;4343069;33;20240;-62
2021/04/13 03:49:50;;;;;;;9.27;4.10;;;0.30;99.90;;;;;;4340088;33;20514;-63
2021/04/13 03:52:21;;;;;;;10.77;4.37;;;0.20;99.90;;;;;;4342955;33;20196;-64
2021/04/13 03:54:48;;;;;;;10.47;3.80;;;0.20;99.90;;;;;;4345200;33;20505;-65
2021/04/13 03:57:29;;;;;;;7.80;3.93;;;0.20;99.90;;;;;;4343315;33;20244;-64
2021/04/13 03:59:58;;;;;;;8.30;3.83;;;0.20;99.90;;;;;;4344275;33;20213;-63
2021/04/13 04:02:25;;;;;;;11.57;4.17;;;0.10;99.90;;;;;;4344916;33;20188;-63
2021/04/13 04:05:05;;;;;;;14.50;4.97;;;0.10;99.90;;;;;;4344704;33;20180;-65
2021/04/13 04:07:36;;;;;;;12.53;4.97;;;0.10;99.90;;;;;;4343195;33;20547;-64
2021/04/13 04:10:27;;;;;;;9.13;4.50;;;0.10;99.90;;;;;;4341001;33;20173;-63
2021/04/13 04:12:58;;;;;;;10.00;4.47;;;0.00;99.90;;;;;;4338245;33;20203;-63
2021/04/13 04:15:27;;;;;;;10.07;4.07;;;0.10;99.90;;;;;;4343406;33;20193;-63
2021/04/13 04:17:56;;;;;;;7.83;3.97;;;0.00;99.90;;;;;;4344968;33;20264;-63
2021/04/13 04:20:35;;;;;;;11.00;4.77;;;0.00;99.90;;;;;;4343747;33;20260;-63
2021/04/13 04:23:02;;;;;;;6.03;3.47;;;0.00;99.90;;;;;;4343633;33;20557;-64
2021/04/13 04:25:37;;;;;;;8.13;4.10;;;0.00;99.90;;;;;;4348728;33;20161;-63
2021/04/13 04:28:13;;;;;;;7.70;4.40;;;0.00;99.90;;;;;;4345931;33;20168;-64
2021/04/13 04:30:39;;;;;;;10.07;4.43;;;0.00;99.90;;;;;;4347027;33;20160;-65
2021/04/13 04:33:07;;;;;;;8.17;3.90;;;0.10;99.90;;;;;;4348244;33;20251;-62
2021/04/13 04:35:37;;;;;;;13.97;6.30;;;0.00;99.90;;;;;;4347836;33;20212;-64
2021/04/13 04:38:10;;;;;;;9.13;5.13;;;0.00;99.90;;;;;;4347185;33;20239;-64
2021/04/13 04:40:56;;;;;;;8.00;4.07;;;0.00;99.90;;;;;;4345865;33;20192;-64
2021/04/13 04:43:56;;;;;;;12.27;4.17;;;0.00;99.90;;;;;;4346970;33;20215;-64
2021/04/13 04:46:36;;;;;;;11.23;4.40;;;0.00;99.90;;;;;;4348247;33;20184;-61
2021/04/13 04:49:06;;;;;;;6.33;4.10;;;0.00;99.90;;;;;;4340706;33;20169;-64
2021/04/13 04:51:32;;;;;;;11.13;4.10;;;0.10;99.90;;;;;;4345452;33;20219;-63
2021/04/13 04:53:59;;;;;;;10.40;3.70;;;0.00;99.90;;;;;;4346032;33;20223;-61
2021/04/13 04:56:25;;;;;;;6.20;4.20;;;0.00;99.90;;;;;;4346378;33;20259;-63
2021/04/13 04:58:51;;;;;;;7.13;4.40;;;0.00;99.90;;;;;;4345888;33;20645;-64
2021/04/13 05:01:17;;;;;;;13.83;4.80;;;0.10;99.90;;;;;;4346869;33;20158;-62
2021/04/13 05:03:44;;;;;;;8.27;4.00;;;0.10;99.90;;;;;;4347353;33;20160;-64
2021/04/13 05:06:12;;;;;;;14.53;4.97;;;0.20;99.90;;;;;;4346634;33;20177;-64
2021/04/13 05:08:38;;;;;;;9.03;4.30;;;0.30;99.90;;;;;;4347578;33;20478;-63
2021/04/13 05:11:05;;;;;;;9.07;4.43;;;0.30;99.90;;;;;;4344344;32;20251;-64
2021/04/13 05:13:32;;;;;;;10.13;3.90;;;0.30;99.90;;;;;;4343411;32;20195;-62
2021/04/13 05:15:59;;;;;;;10.77;4.57;;;0.40;99.90;;;;;;4347093;33;20187;-66
2021/04/13 05:18:26;;;;;;;11.70;4.30;;;0.40;99.90;;;;;;4347178;33;20282;-63
2021/04/13 05:20:54;;;;;;;10.30;3.93;;;0.60;99.90;;;;;;4348796;33;20216;-63
2021/04/13 05:23:24;;;;;;;9.43;4.00;;;0.60;99.90;;;;;;4345913;33;20268;-62
2021/04/13 05:25:51;;;;;;;6.87;3.80;;;0.80;99.90;;;;;;4345355;33;21040;-64
2021/04/13 05:28:18;;;;;;;9.80;4.53;;;0.80;99.90;;;;;;4345496;32;20651;-64
2021/04/13 05:30:45;;;;;;;8.67;4.10;;;1.00;99.90;;;;;;4344711;33;20638;-64
2021/04/13 05:33:11;;;;;;;8.17;4.10;;;1.10;99.90;;;;;;4345071;32;20185;-65
2021/04/13 05:35:38;;;;;;;6.40;4.40;;;1.20;99.90;;;;;;4346795;33;20279;-62
2021/04/13 05:38:06;;;;;;;8.03;4.33;;;1.40;99.90;;;;;;4345929;32;20161;-64
2021/04/13 05:40:38;;;;;;;8.87;4.40;;;1.90;99.90;;;;;;4344364;33;20162;-66
2021/04/13 05:43:04;;;;;;;5.10;3.80;;;2.20;99.90;;;;;;4347426;32;20200;-65
2021/04/13 05:45:33;;;;;;;8.17;4.33;;;2.70;99.90;;;;;;4347737;33;20205;-64
2021/04/13 05:48:16;;;;;;;8.73;3.50;;;3.60;99.90;;;;;;4345992;33;20181;-65
2021/04/13 05:50:44;;;;;;;8.10;3.23;;;5.30;97.20;;;;;;4344230;33;20625;-64
2021/04/13 05:53:12;;;;;;;5.20;3.13;;;6.00;93.40;;;;;;4344776;33;20236;-64
2021/04/13 05:55:39;;;;;;;6.13;3.10;;;5.70;92.90;;;;;;4343527;33;20196;-63
2021/04/13 05:58:08;;;;;;;8.60;3.37;;;5.10;93.40;;;;;;4345901;33;20280;-64
2021/04/13 06:00:34;;;;;;;8.33;3.40;;;4.60;94.50;;;;;;4346114;33;20549;-63
2021/04/13 06:03:01;;;;;;;6.50;3.30;;;4.20;95.30;;;;;;4344800;33;20248;-63
2021/04/13 06:05:29;;;;;;;5.47;3.73;;;3.90;96.20;;;;;;4345120;33;20165;-63
2021/04/13 06:07:56;;;;;;;8.80;3.40;;;3.70;96.70;;;;;;4344378;33;20217;-64
2021/04/13 06:10:25;;;;;;;9.90;3.83;;;3.50;97.20;;;;;;4344045;33;20235;-63
2021/04/13 06:12:54;;;;;;;10.03;3.80;;;3.50;97.60;;;;;;4344112;33;20165;-63
2021/04/13 06:15:22;;;;;;;6.60;4.27;;;3.50;98.10;;;;;;4344453;33;20165;-63
2021/04/13 06:17:50;;;;;;;6.43;4.00;;;3.50;98.20;;;;;;4345258;33;20224;-63
2021/04/13 06:20:20;;;;;;;7.37;4.03;;;3.60;98.30;;;;;;4340960;33;20177;-62
2021/04/13 06:22:49;;;;;;;7.20;3.57;;;3.90;98.90;;;;;;4345834;32;20161;-63
2021/04/13 06:25:17;;;;;;;9.90;3.37;;;4.50;98.50;;;;;;4343628;33;20516;-63
2021/04/13 06:27:43;;;;;;;9.10;3.33;;;5.10;97.60;;;;;;4342981;33;20300;-64
2021/04/13 06:30:12;;;;;;;6.93;3.40;;;5.60;96.70;;;;;;4343509;33;20245;-64
2021/04/13 06:32:38;;;;;;;9.07;3.50;;;5.80;96.20;;;;;;4344357;33;20224;-64
2021/04/13 06:35:06;;;;;;;7.27;3.53;;;6.00;95.80;;;;;;4346746;33;20255;-64
2021/04/13 06:37:35;;;;;;;10.27;3.07;;;6.00;95.60;;;;;;4348151;33;20209;-63
2021/04/13 06:40:03;;;;;;;9.43;3.13;;;5.90;95.80;;;;;;4346471;33;20179;-64
2021/04/13 06:42:57;;;;;;;8.77;3.63;;;5.90;95.80;;;;;;4343089;33;20164;-63
2021/04/13 06:45:32;;;;;;;9.47;3.00;;;5.90;96.00;;;;;;4299797;33;20182;-62
2021/04/13 06:48:27;;;;;;;12.10;3.40;;;6.30;95.40;;;;;;4298763;33;20544;-62
2021/04/13 06:51:03;;;;;;;4.97;2.60;;;6.50;94.90;;;;;;4298156;33;20225;-62
2021/04/13 06:54:03;;;;;;;7.27;3.27;;;6.70;94.50;;;;;;4298171;33;20245;-63
2021/04/13 06:56:58;;;;;;;9.30;3.80;;;6.80;94.50;;;;;;4297347;33;20191;-63
2021/04/13 06:59:37;;;;;;;7.93;3.17;;;7.20;94.00;;;;;;4298333;33;20339;-62
2021/04/13 07:02:11;;;;;;;9.07;3.07;;;8.00;93.10;;;;;;4297287;33;20193;-64
2021/04/13 07:04:43;;;;;;;8.43;2.23;;;8.70;91.20;;;;;;4297969;33;20173;-62
2021/04/13 07:07:15;;;;;;;9.33;2.33;;;9.10;90.00;;;;;;4299423;33;20203;-63
2021/04/13 07:09:44;;;;;;;9.80;2.73;;;9.00;86.40;;;;;;4299829;33;20185;-63
2021/04/13 07:12:17;;;;;;;6.50;2.20;;;9.10;86.30;;;;;;4290322;33;20205;-63
2021/04/13 07:14:53;;;;;;;11.77;2.23;;;8.90;85.50;;;;;;4295544;33;20265;-63
2021/04/13 07:17:26;;;;;;;8.17;1.70;;;8.90;85.90;;;;;;4295301;33;20173;-64
2021/04/13 07:20:00;;;;;;;7.47;1.87;;;9.40;86.40;;;;;;4296055;33;20185;-63
2021/04/13 07:22:32;;;;;;;6.77;2.00;;;9.70;85.00;;;;;;4328772;33;20176;-63
2021/04/13 07:25:04;;;;;;;9.30;2.13;;;9.70;83.70;;;;;;4341902;33;20586;-65
2021/04/13 07:27:38;;;;;;;7.90;2.30;;;9.70;84.60;;;;;;4343061;33;20211;-62
2021/04/13 07:30:10;;;;;;;4.90;2.03;;;9.10;83.60;;;;;;4342095;33;20213;-63
2021/04/13 07:32:38;;;;;;;11.70;2.17;;;9.40;83.60;;;;;;4341041;33;20224;-64
2021/04/13 07:35:09;;;;;;;9.87;2.27;;;9.70;81.70;;;;;;4342976;33;20165;-65
2021/04/13 07:37:39;;;;;;;5.57;1.60;;;9.70;80.90;;;;;;4341872;33;20284;-64
2021/04/13 07:40:12;;;;;;;5.03;1.50;;;9.10;82.50;;;;;;4343503;33;20611;-63
2021/04/13 07:42:42;;;;;;;4.83;1.57;;;9.60;80.80;;;;;;4339208;33;20519;-63
2021/04/13 07:45:31;;;;;;;4.67;1.63;;;10.00;78.30;;;;;;4341533;33;20594;-64
2021/04/13 07:48:17;;;;;;;6.03;1.43;;;11.50;76.10;;;;;;4342186;33;20363;-63
2021/04/13 07:51:05;;;;;;;4.77;1.90;;;16.80;56.60;;;;;;4329436;33;20217;-63
2021/04/13 07:53:43;;;;;;;4.27;1.20;;;18.80;48.30;;;;;;4341859;33;20598;-64
2021/04/13 07:56:22;;;;;;;4.93;1.40;;;23.20;42.70;;;;;;4342798;33;20184;-64
2021/04/13 07:58:55;;;;;;;4.93;1.40;;;22.40;35.30;;;;;;4344773;33;20168;-65
2021/04/13 08:01:22;;;;;;;10.83;1.60;;;23.30;35.30;;;;;;4346839;33;20175;-64
2021/04/13 08:03:49;;;;;;;6.80;1.13;;;28.20;33.10;;;;;;4346567;33;20696;-64
2021/04/13 08:06:43;;;;;;;5.90;1.40;;;27.20;29.60;;;;;;4346740;33;20225;-64
2021/04/13 08:09:34;;;;;;;3.90;1.30;;;22.00;34.50;;;;;;4346373;33;20161;-63
2021/04/13 08:12:26;;;;;;;5.40;1.47;;;23.80;35.40;;;;;;4345022;33;20188;-64
2021/04/13 08:15:12;;;;;;;5.00;1.20;;;30.20;31.60;;;;;;4344886;33;20216;-64
2021/04/13 08:17:56;;;;;;;5.13;1.10;;;31.80;28.50;;;;;;4345083;33;20180;-65
2021/04/13 08:20:32;;;;;;;8.33;1.60;;;29.50;31.50;;;;;;4344543;32;21250;-64
2021/04/13 08:23:03;;;;;;;6.00;1.40;;;27.90;30.20;;;;;;4345271;33;20208;-64
2021/04/13 08:25:33;;;;;;;9.40;1.50;;;23.20;32.50;;;;;;4344304;33;20695;-66
2021/04/13 08:28:23;;;;;;;3.60;1.17;;;22.70;33.50;;;;;;4344499;33;20232;-66
2021/04/13 08:34:18;;;;;;;7.20;1.40;;;18.70;43.20;;;;;;4343708;33;20496;-65
2021/04/13 08:36:50;;;;;;;6.03;1.60;;;17.20;42.90;;;;;;4344061;33;20291;-64
2021/04/13 08:39:26;;;;;;;2.37;1.47;;;15.90;49.50;;;;;;4344420;33;20176;-65
2021/04/13 08:42:28;;;;;;;6.80;1.20;;;21.80;44.70;;;;;;4344954;33;20165;-63
2021/04/13 08:44:59;;;;;;;4.33;1.07;;;22.50;35.70;;;;;;4271452;33;20173;-62
2021/04/13 08:47:37;;;;;;;8.93;1.80;;;22.20;39.00;;;;;;4271694;33;20753;-62
2021/04/13 08:50:25;;;;;;;6.03;1.57;;;23.10;36.20;;;;;;4271769;33;20225;-61
2021/04/13 08:53:02;;;;;;;5.23;1.43;;;21.70;36.90;;;;;;4272930;33;20194;-65
2021/04/13 08:55:48;;;;;;;7.03;1.30;;;21.50;36.50;;;;;;4269908;33;20217;-64
2021/04/13 08:58:34;;;;;;;8.67;1.60;;;19.00;41.00;;;;;;4273380;33;20315;-62
2021/04/13 09:01:02;;;;;;;7.20;1.53;;;21.30;40.20;;;;;;4271661;33;20201;-64
2021/04/13 09:06:31;;;;;;;6.47;1.70;;;20.00;38.30;;;;;;4268221;33;20582;-61
2021/04/13 09:09:06;;;;;;;4.10;1.63;;;17.60;41.30;;;;;;4270696;33;20249;-61
2021/04/13 09:11:46;;;;;;;4.40;1.30;;;13.20;51.60;;;;;;4270619;33;20603;-62
2021/04/13 09:14:25;;;;;;;7.67;1.33;;;12.30;58.10;;;;;;4271197;33;20566;-61
2021/04/13 09:16:58;;;;;;;10.93;1.93;;;11.90;61.60;;;;;;4271614;33;20236;-63
2021/04/13 09:19:31;;;;;;;6.23;1.37;;;11.90;61.80;;;;;;4271403;33;20171;-62
2021/04/13 09:22:13;;;;;;;4.27;1.30;;;12.00;63.20;;;;;;4325917;33;20184;-62
2021/04/13 09:24:42;;;;;;;5.53;1.27;;;12.40;61.80;;;;;;4346149;33;20167;-61
2021/04/13 09:27:26;;;;;;;4.63;1.33;;;11.80;60.50;;;;;;4344749;33;20267;-61
2021/04/13 09:29:55;;;;;;;9.67;1.73;;;11.70;59.70;;;;;;4343748;33;20193;-62
2021/04/13 09:32:40;;;;;;;3.90;1.37;;;11.60;62.90;;;;;;4343773;33;20161;-61
2021/04/13 09:35:30;;;;;;;7.63;1.37;;;11.10;60.60;;;;;;4343827;33;20245;-62
2021/04/13 09:38:12;;;;;;;4.17;1.17;;;11.50;60.40;;;;;;4332860;33;20252;-65
2021/04/13 09:40:51;;;;;;;7.13;1.30;;;11.80;59.10;;;;;;4343899;33;20220;-62
2021/04/13 09:43:30;;;;;;;6.37;1.20;;;11.40;61.60;;;;;;4344074;33;20481;-64
2021/04/13 09:46:01;;;;;;;2.83;1.20;;;11.30;60.20;;;;;;4343844;33;20213;-61
2021/04/13 09:48:58;;;;;;;4.83;1.00;;;11.50;60.50;;;;;;4344595;33;20190;-62
2021/04/13 09:51:41;;;;;;;4.53;1.20;;;11.50;60.30;;;;;;4343161;33;20590;-61
2021/04/13 09:54:19;;;;;;;7.07;1.37;;;11.20;60.30;;;;;;4342427;33;20703;-64
2021/04/13 09:57:32;;;;;;;4.87;1.30;;;11.10;60.60;;;;;;4344142;33;20505;-64
2021/04/13 10:00:30;;;;;;;3.83;1.10;;;11.10;63.60;;;;;;4310828;33;20233;-63
2021/04/13 10:03:24;;;;;;;4.03;1.60;;;10.30;61.40;;;;;;4311311;33;20205;-66
2021/04/13 10:05:54;;;;;;;4.07;1.23;;;10.60;61.60;;;;;;4312412;33;20171;-64
2021/04/13 10:08:23;;;;;;;1.93;0.80;;;11.10;61.30;;;;;;4311661;33;20490;-64
2021/04/13 10:11:24;;;;;;;7.00;1.40;;;10.20;60.80;;;;;;4311029;33;20222;-62
2021/04/13 10:14:27;;;;;;;8.13;1.30;;;10.50;63.20;;;;;;4259007;33;20167;-64
2021/04/13 10:17:11;;;;;;;4.80;1.20;;;10.30;64.20;;;;;;4264047;33;20551;-61
2021/04/13 10:19:48;;;;;;;3.73;1.37;;;10.30;61.60;;;;;;4262579;33;20713;-64
2021/04/13 10:22:50;;;;;;;2.53;1.00;;;10.30;59.00;;;;;;4262499;33;20197;-63
2021/04/13 10:26:06;;;;;;;4.07;0.90;;;10.20;57.00;;;;;;4265056;33;20242;-62
2021/04/13 10:29:13;;;;;;;5.13;1.13;;;10.60;58.90;;;;;;4260168;33;20350;-63
2021/04/13 10:32:13;;;;;;;3.63;1.03;;;11.00;58.30;;;;;;4263972;33;20702;-64
2021/04/13 10:35:09;;;;;;;5.57;1.30;;;11.30;58.10;;;;;;4264589;33;20202;-64
2021/04/13 10:38:24;;;;;;;3.80;1.27;;;10.80;58.90;;;;;;4265255;33;20168;-65
2021/04/13 10:41:19;;;;;;;2.57;1.13;;;11.30;58.40;;;;;;4260012;33;20263;-62
2021/04/13 10:44:17;;;;;;;3.57;1.10;;;11.40;57.90;;;;;;4263610;33;20212;-62
2021/04/13 10:46:51;;;;;;;2.53;1.23;;;11.60;60.80;;;;;;4264595;33;20232;-65
2021/04/13 10:49:36;;;;;;;3.77;1.00;;;12.00;62.20;;;;;;4262736;33;20623;-63
2021/04/13 10:52:25;;;;;;;2.43;1.17;;;11.80;52.80;;;;;;4313574;33;20544;-65
2021/04/13 10:55:30;;;;;;;4.43;1.13;;;11.40;55.70;;;;;;4316078;33;20516;-62
2021/04/13 10:58:33;;;;;;;4.10;1.20;;;10.30;56.80;;;;;;4284236;33;20276;-62
2021/04/13 11:01:27;;;;;;;3.07;0.97;;;10.20;59.10;;;;;;4283672;33;20253;-65
2021/04/13 11:04:30;;;;;;;6.43;1.30;;;10.40;59.60;;;;;;4284280;33;20179;-64
2021/04/13 11:07:55;;;;;;;2.80;1.10;;;10.90;59.90;;;;;;4229714;33;20509;-65
2021/04/13 11:10:51;;;;;;;2.20;1.00;;;11.10;56.90;;;;;;4234153;33;20171;-62
2021/04/13 11:13:58;;;;;;;2.17;0.90;;;10.80;56.20;;;;;;4189465;34;20193;-62
2021/04/13 11:16:57;;;;;;;3.43;1.33;;;10.80;54.90;;;;;;4199008;34;20193;-63
2021/04/13 11:19:38;;;;;;;4.63;1.17;;;10.80;57.70;;;;;;4201283;34;20308;-64
2021/04/13 11:22:49;;;;;;;3.90;1.00;;;11.30;56.00;;;;;;4200530;34;20229;-64
2021/04/13 11:25:41;;;;;;;2.63;1.07;;;11.20;56.60;;;;;;4200945;34;20170;-64
2021/04/13 11:28:43;;;;;;;2.63;0.97;;;11.10;54.60;;;;;;4200085;34;20180;-62
2021/04/13 11:31:48;;;;;;;2.03;0.90;;;11.10;51.30;;;;;;4204107;34;20598;-65
2021/04/13 11:34:53;;;;;;;4.63;1.40;;;11.00;53.60;;;;;;4223647;34;20230;-66
2021/04/13 11:37:36;;;;;;;4.00;1.10;;;11.00;55.00;;;;;;4225335;34;20304;-61
2021/04/13 11:40:17;;;;;;;5.93;1.27;;;11.20;53.80;;;;;;4225883;34;20420;-63
2021/04/13 11:42:48;;;;;;;3.40;1.27;;;11.20;54.20;;;;;;4227384;33;20167;-62
2021/04/13 11:45:23;;;;;;;4.93;1.10;;;10.70;54.60;;;;;;4283455;33;20273;-62
2021/04/13 11:47:58;;;;;;;5.60;1.10;;;10.90;55.60;;;;;;4282740;33;20170;-65
2021/04/13 11:50:31;;;;;;;2.30;1.10;;;10.90;51.60;;;;;;4306633;33;20233;-63
2021/04/13 11:53:05;;;;;;;3.90;1.30;;;10.70;53.20;;;;;;4327999;33;20290;-64
2021/04/13 11:55:46;;;;;;;3.97;1.23;;;10.80;54.40;;;;;;4328218;33;20216;-63
2021/04/13 11:58:17;;;;;;;4.67;1.17;;;10.80;54.50;;;;;;4327040;33;20174;-61
2021/04/13 12:00:44;;;;;;;3.40;0.97;;;11.00;54.00;;;;;;4328398;33;20217;-62
2021/04/13 12:03:39;;;;;;;2.03;0.90;;;11.10;53.60;;;;;;4329461;33;20218;-64
2021/04/13 12:06:11;;;;;;;3.40;1.10;;;11.30;52.50;;;;;;4326684;33;20173;-61
2021/04/13 12:08:46;;;;;;;7.23;1.00;;;11.10;51.70;;;;;;4328404;33;20200;-64
2021/04/13 12:11:15;;;;;;;4.33;1.20;;;10.60;51.10;;;;;;4335636;33;20215;-65
2021/04/13 12:13:45;;;;;;;3.87;1.10;;;10.60;51.50;;;;;;4340236;33;20212;-61
2021/04/13 12:16:14;;;;;;;3.97;1.17;;;10.40;54.80;;;;;;4341551;33;20185;-64
2021/04/13 12:19:09;;;;;;;3.57;0.97;;;11.10;54.50;;;;;;4341590;33;20231;-63
2021/04/13 12:22:23;;;;;;;2.67;1.20;;;11.40;51.60;;;;;;4342167;33;20527;-63
2021/04/13 12:24:52;;;;;;;2.53;1.00;;;11.60;51.90;;;;;;4339879;33;20180;-61
2021/04/13 12:27:48;;;;;;;3.67;1.20;;;11.20;53.70;;;;;;4341177;33;20237;-64
2021/04/13 12:30:48;;;;;;;6.33;1.50;;;10.60;54.40;;;;;;4342337;33;20165;-64
2021/04/13 12:33:47;;;;;;;3.27;1.23;;;10.40;56.90;;;;;;4341581;33;20259;-62
2021/04/13 12:36:58;;;;;;;1.50;1.03;;;10.60;53.80;;;;;;4341955;33;20208;-64
2021/04/13 12:39:55;;;;;;;4.47;1.23;;;10.70;52.30;;;;;;4341396;33;20481;-63
2021/04/13 12:42:39;;;;;;;1.97;1.13;;;10.80;53.10;;;;;;4340351;33;20228;-63
2021/04/13 12:45:41;;;;;;;2.03;1.00;;;10.80;52.70;;;;;;4343375;33;20270;-63
2021/04/13 12:48:14;;;;;;;2.97;1.20;;;10.90;50.90;;;;;;4344484;33;20246;-62
2021/04/13 12:50:43;;;;;;;4.70;1.20;;;10.90;51.40;;;;;;4343970;33;20180;-63
2021/04/13 12:53:17;;;;;;;6.60;1.80;;;11.00;52.40;;;;;;4343147;33;20181;-64
2021/04/13 12:55:44;;;;;;;3.30;1.07;;;10.90;50.90;;;;;;4341016;33;20226;-61
2021/04/13 12:58:14;;;;;;;4.63;1.50;;;11.20;50.70;;;;;;4343569;33;20690;-64
2021/04/13 13:00:44;;;;;;;6.27;1.17;;;11.70;52.30;;;;;;4343637;33;20602;-61
2021/04/13 13:03:16;;;;;;;4.97;1.40;;;12.00;51.40;;;;;;4343147;33;20164;-62
2021/04/13 13:05:44;;;;;;;6.07;1.40;;;11.50;50.10;;;;;;4340857;33;20180;-62
2021/04/13 13:08:21;;;;;;;4.80;1.53;;;11.00;53.50;;;;;;4343764;33;20172;-64
2021/04/13 13:10:50;;;;;;;3.50;1.30;;;10.90;51.90;;;;;;4343453;33;20219;-62
2021/04/13 13:13:21;;;;;;;2.03;1.10;;;10.50;54.50;;;;;;4343479;33;20193;-61
2021/04/13 13:15:48;;;;;;;3.77;1.47;;;10.40;53.50;;;;;;4343816;33;20304;-62
2021/04/13 13:18:21;;;;;;;1.23;0.80;;;10.30;54.30;;;;;;4344080;33;20161;-60
2021/04/13 13:20:57;;;;;;;3.07;1.10;;;10.50;53.60;;;;;;4343528;33;20173;-62
2021/04/13 13:23:35;;;;;;;1.93;0.97;;;9.70;56.50;;;;;;4343439;33;20264;-62
2021/04/13 13:26:22;;;;;;;2.20;1.00;;;9.70;57.60;;;;;;4342586;33;20157;-64
2021/04/13 13:28:48;;;;;;;3.47;1.10;;;9.50;56.80;;;;;;4344049;33;20498;-66
2021/04/13 13:31:25;;;;;;;2.90;1.00;;;9.60;58.60;;;;;;4344663;33;20160;-62
2021/04/13 13:33:54;;;;;;;4.07;1.50;;;9.90;56.20;;;;;;4343299;33;20224;-63
2021/04/13 13:36:21;;;;;;;3.13;0.70;;;10.00;52.90;;;;;;4341920;33;20165;-62
2021/04/13 13:38:49;;;;;;;3.20;1.20;;;10.10;52.80;;;;;;4343629;33;20161;-63
2021/04/13 13:41:22;;;;;;;3.93;1.30;;;10.20;52.00;;;;;;4341811;33;20165;-65
2021/04/13 13:43:49;;;;;;;2.10;0.87;;;10.30;53.70;;;;;;4342921;33;20163;-62
2021/04/13 13:46:28;;;;;;;7.40;1.30;;;10.30;52.70;;;;;;4344272;33;20578;-61